createdAt,value
2022-11-25T00:00:32.560Z,69.10
2022-11-25T00:02:54.333Z,68.54
2022-11-25T00:04:56.708Z,69.07
2022-11-25T00:06:58.478Z,69.07
2022-11-25T00:09:09.913Z,69.24
2022-11-25T00:11:13.913Z,69.30
2022-11-25T00:13:15.746Z,68.54
2022-11-25T00:15:17.544Z,68.92
2022-11-25T00:17:19.680Z,68.95
2022-11-25T00:19:21.560Z,67.51
2022-11-25T00:21:31.597Z,68.26
2022-11-25T00:23:33.656Z,68.53
2022-11-25T00:25:35.786Z,68.14
2022-11-25T00:27:37.927Z,68.73
2022-11-25T00:29:39.668Z,68.52
2022-11-25T00:31:41.851Z,68.21
2022-11-25T00:33:45.027Z,68.27
2022-11-25T00:35:46.790Z,68.65
2022-11-25T00:37:48.591Z,68.79
2022-11-25T00:39:51.706Z,68.06
2022-11-25T00:42:12.152Z,68.52
2022-11-25T00:44:36.439Z,67.39
2022-11-25T00:46:39.207Z,68.24
2022-11-25T00:48:41.010Z,67.67
2022-11-25T00:50:42.918Z,67.26
2022-11-25T00:52:45.161Z,67.48
2022-11-25T00:54:47.833Z,67.27
2022-11-25T00:56:50.292Z,67.10
2022-11-25T00:58:53.318Z,68.32
2022-11-25T01:00:55.097Z,67.97
2022-11-25T01:02:56.850Z,68.03
2022-11-25T01:04:59.026Z,67.37
2022-11-25T01:07:02.222Z,68.74
2022-11-25T01:09:05.489Z,68.96
2022-11-25T01:11:11.453Z,68.51
2022-11-25T01:13:13.249Z,68.90
2022-11-25T01:15:15.021Z,68.77
2022-11-25T01:17:17.141Z,68.16
2022-11-25T01:19:20.152Z,68.50
2022-11-25T01:21:30.641Z,68.16
2022-11-25T01:23:33.353Z,68.66
2022-11-25T01:25:39.259Z,67.66
2022-11-25T01:27:43.158Z,67.97
2022-11-25T01:29:45.288Z,68.80
2022-11-25T01:31:48.692Z,68.78
2022-11-25T01:33:56.722Z,68.77
2022-11-25T01:36:05.154Z,68.59
2022-11-25T01:38:06.962Z,68.66
2022-11-25T01:40:09.558Z,69.10
2022-11-25T01:42:11.594Z,68.07
2022-11-25T01:44:19.431Z,68.10
2022-11-25T01:46:25.759Z,69.16
2022-11-25T01:48:43.040Z,68.76
2022-11-25T01:50:47.449Z,68.97
2022-11-25T01:52:51.970Z,68.39
2022-11-25T01:55:05.323Z,69.15
2022-11-25T01:57:14.049Z,68.70
2022-11-25T01:59:16.176Z,69.05
2022-11-25T02:01:18.422Z,68.77
2022-11-25T02:03:26.814Z,68.43
2022-11-25T02:05:52.604Z,68.88
2022-11-25T02:07:55.561Z,68.20
2022-11-25T02:09:58.494Z,68.60
2022-11-25T02:12:01.121Z,69.11
2022-11-25T02:14:04.006Z,67.95
2022-11-25T02:16:05.904Z,69.30
2022-11-25T02:18:07.805Z,69.09
2022-11-25T02:20:14.412Z,68.71
2022-11-25T02:22:26.078Z,67.93
2022-11-25T02:24:43.158Z,69.11
2022-11-25T02:26:45.338Z,68.97
2022-11-25T02:28:48.798Z,68.89
2022-11-25T02:30:51.265Z,68.64
2022-11-25T02:32:53.437Z,68.08
2022-11-25T02:34:55.389Z,68.77
2022-11-25T02:36:57.275Z,68.32
2022-11-25T02:39:01.648Z,68.81
2022-11-25T02:41:25.130Z,68.04
2022-11-25T02:43:27.259Z,67.35
2022-11-25T02:45:39.885Z,68.81
2022-11-25T02:47:41.753Z,68.95
2022-11-25T02:49:43.498Z,68.48
2022-11-25T02:51:46.185Z,68.45
2022-11-25T02:53:48.077Z,68.86
2022-11-25T02:55:49.880Z,68.51
2022-11-25T02:57:52.115Z,68.97
2022-11-25T02:59:53.906Z,68.34
2022-11-25T03:01:55.750Z,68.29
2022-11-25T03:03:58.655Z,68.52
2022-11-25T03:06:00.512Z,68.50
2022-11-25T03:08:02.396Z,69.24
2022-11-25T03:10:05.049Z,68.95
2022-11-25T03:12:21.998Z,68.33
2022-11-25T03:14:23.857Z,69.55
2022-11-25T03:16:26.032Z,69.82
2022-11-25T03:18:27.999Z,69.57
2022-11-25T03:20:29.969Z,69.50
2022-11-25T03:22:32.166Z,69.60
2022-11-25T03:24:34.349Z,69.53
2022-11-25T03:26:36.325Z,69.82
2022-11-25T03:28:38.450Z,70.08
2022-11-25T03:30:40.982Z,69.93
2022-11-25T03:32:43.418Z,70.06
2022-11-25T03:34:45.586Z,69.01
2022-11-25T03:36:47.760Z,69.17
2022-11-25T03:38:49.578Z,69.97
2022-11-25T03:40:51.797Z,70.17
2022-11-25T03:42:53.625Z,70.14
2022-11-25T03:44:55.385Z,70.04
2022-11-25T03:46:57.505Z,69.87
2022-11-25T03:48:59.315Z,70.66
2022-11-25T03:51:01.133Z,70.43
2022-11-25T03:53:03.266Z,70.36
2022-11-25T03:55:06.218Z,70.66
2022-11-25T03:57:07.970Z,69.90
2022-11-25T03:59:10.299Z,69.96
2022-11-25T04:01:12.153Z,69.24
2022-11-25T04:03:14.077Z,69.55
2022-11-25T04:05:16.325Z,68.86
2022-11-25T04:07:18.370Z,69.63
2022-11-25T04:09:20.282Z,69.29
2022-11-25T04:11:22.432Z,69.48
2022-11-25T04:13:24.255Z,69.14
2022-11-25T04:15:26.126Z,68.79
2022-11-25T04:17:28.259Z,69.41
2022-11-25T04:19:30.023Z,68.75
2022-11-25T04:21:31.930Z,68.87
2022-11-25T04:23:34.613Z,69.21
2022-11-25T04:25:36.948Z,69.64
2022-11-25T04:27:38.938Z,69.99
2022-11-25T04:29:41.055Z,69.73
2022-11-25T04:31:42.849Z,70.05
2022-11-25T04:33:49.648Z,68.89
2022-11-25T04:35:54.568Z,69.38
2022-11-25T04:37:56.378Z,68.80
2022-11-25T04:39:58.154Z,68.65
2022-11-25T04:42:18.894Z,70.04
2022-11-25T04:44:20.647Z,70.10
2022-11-25T04:46:24.922Z,70.00
2022-11-25T04:48:27.359Z,70.30
2022-11-25T04:50:29.171Z,69.38
2022-11-25T04:52:31.006Z,69.71
2022-11-25T04:54:33.358Z,69.64
2022-11-25T04:56:35.349Z,69.36
2022-11-25T04:58:55.874Z,69.43
2022-11-25T05:00:58.064Z,69.87
2022-11-25T05:02:59.879Z,69.78
2022-11-25T05:05:02.137Z,70.10
2022-11-25T05:07:04.330Z,70.68
2022-11-25T05:09:06.536Z,71.08
2022-11-25T05:11:08.326Z,71.04
2022-11-25T05:13:10.461Z,71.59
2022-11-25T05:15:12.334Z,71.71
2022-11-25T05:17:22.869Z,70.16
2022-11-25T05:19:25.062Z,71.59
2022-11-25T05:21:27.544Z,70.51
2022-11-25T05:23:29.402Z,71.41
2022-11-25T05:25:31.577Z,71.38
2022-11-25T05:27:33.438Z,70.47
2022-11-25T05:29:35.465Z,70.72
2022-11-25T05:31:37.766Z,71.28
2022-11-25T05:33:39.568Z,70.46
2022-11-25T05:35:41.341Z,70.63
2022-11-25T05:37:44.996Z,70.00
2022-11-25T05:39:46.854Z,70.26
2022-11-25T05:41:48.813Z,70.17
2022-11-25T05:43:53.609Z,70.09
2022-11-25T05:45:55.802Z,69.67
2022-11-25T05:47:57.640Z,69.81
2022-11-25T05:49:59.769Z,70.73
2022-11-25T05:52:01.592Z,70.54
2022-11-25T05:54:03.401Z,70.16
2022-11-25T05:56:07.207Z,70.69
2022-11-25T05:58:09.418Z,71.03
2022-11-25T06:00:11.815Z,70.73
2022-11-25T06:02:14.016Z,70.10
2022-11-25T06:04:16.055Z,70.69
2022-11-25T06:06:18.419Z,70.83
2022-11-25T06:08:20.535Z,70.66
2022-11-25T06:10:22.364Z,69.70
2022-11-25T06:12:24.350Z,70.73
2022-11-25T06:14:26.466Z,70.39
2022-11-25T06:16:28.735Z,70.30
2022-11-25T06:18:30.522Z,70.59
2022-11-25T06:20:32.650Z,69.90
2022-11-25T06:22:34.590Z,69.51
2022-11-25T06:24:36.593Z,70.88
2022-11-25T06:26:38.878Z,70.42
2022-11-25T06:28:41.104Z,70.36
2022-11-25T06:30:42.871Z,70.50
2022-11-25T06:32:45.141Z,69.96
2022-11-25T06:34:46.883Z,69.58
2022-11-25T06:36:51.729Z,69.73
2022-11-25T06:38:54.491Z,70.19
2022-11-25T06:41:00.653Z,70.24
2022-11-25T06:43:04.717Z,70.32
2022-11-25T06:45:07.505Z,69.29
2022-11-25T06:47:09.366Z,69.26
2022-11-25T06:49:11.389Z,69.74
2022-11-25T06:51:14.855Z,69.51
2022-11-25T06:53:21.163Z,68.98
2022-11-25T06:55:25.667Z,69.84
2022-11-25T06:57:28.191Z,68.70
2022-11-25T06:59:29.985Z,67.77
2022-11-25T07:01:31.859Z,68.19
2022-11-25T07:03:35.033Z,67.65
2022-11-25T07:05:36.850Z,67.52
2022-11-25T07:07:38.668Z,68.20
2022-11-25T07:09:40.947Z,68.19
2022-11-25T07:11:43.008Z,68.19
2022-11-25T07:13:45.471Z,68.96
2022-11-25T07:15:48.027Z,70.14
2022-11-25T07:17:49.825Z,70.36
2022-11-25T07:19:51.783Z,68.97
2022-11-25T07:21:54.023Z,70.01
2022-11-25T07:23:56.068Z,70.87
2022-11-25T07:26:02.517Z,70.20
2022-11-25T07:28:04.706Z,70.74
2022-11-25T07:31:09.270Z,69.80
2022-11-25T07:32:32.846Z,71.04
2022-11-25T07:34:34.646Z,70.99
2022-11-25T07:36:37.535Z,70.66
2022-11-25T07:38:46.233Z,69.78
2022-11-25T07:40:50.647Z,68.67
2022-11-25T07:42:52.814Z,68.82
2022-11-25T07:44:54.679Z,69.59
2022-11-25T07:46:57.216Z,69.55
2022-11-25T07:49:02.342Z,69.20
2022-11-25T07:51:04.250Z,68.07
2022-11-25T07:53:06.031Z,68.53
2022-11-25T07:55:08.730Z,67.37
2022-11-25T07:57:11.144Z,68.73
2022-11-25T07:59:16.254Z,67.84
2022-11-25T08:01:19.833Z,68.21
2022-11-25T08:03:21.658Z,67.93
2022-11-25T08:05:23.483Z,67.84
2022-11-25T08:07:26.035Z,68.03
2022-11-25T08:09:27.889Z,67.61
2022-11-25T08:11:31.615Z,68.84
2022-11-25T08:13:33.814Z,68.66
2022-11-25T08:15:35.849Z,68.64
2022-11-25T08:17:37.708Z,68.74
2022-11-25T08:19:40.737Z,69.24
2022-11-25T08:21:42.903Z,68.54
2022-11-25T08:23:48.727Z,68.40
2022-11-25T08:25:51.714Z,68.81
2022-11-25T08:27:53.515Z,69.33
2022-11-25T08:29:55.296Z,68.19
2022-11-25T08:31:58.504Z,68.81
2022-11-25T08:34:01.034Z,67.99
2022-11-25T08:36:03.470Z,68.23
2022-11-25T08:38:08.109Z,68.34
2022-11-25T08:40:11.953Z,68.14
2022-11-25T08:42:13.735Z,68.02
2022-11-25T08:44:15.923Z,66.88
2022-11-25T08:46:20.776Z,69.02
2022-11-25T08:48:23.064Z,68.01
2022-11-25T08:50:25.373Z,68.95
2022-11-25T08:52:30.343Z,68.17
2022-11-25T08:54:32.531Z,67.37
2022-11-25T08:56:35.186Z,66.85
2022-11-25T08:58:38.140Z,67.74
2022-11-25T09:00:42.214Z,68.74
2022-11-25T09:02:44.442Z,67.97
2022-11-25T09:04:46.407Z,66.96
2022-11-25T09:06:48.580Z,68.20
2022-11-25T09:08:50.730Z,67.45
2022-11-25T09:10:55.367Z,68.21
2022-11-25T09:12:57.523Z,67.83
2022-11-25T09:14:59.815Z,67.16
2022-11-25T09:17:02.153Z,68.36
2022-11-25T09:19:04.455Z,66.74
2022-11-25T09:21:11.513Z,68.33
2022-11-25T09:23:14.055Z,67.58
2022-11-25T09:25:15.969Z,67.20
2022-11-25T09:27:18.177Z,67.70
2022-11-25T09:29:20.287Z,67.42
2022-11-25T09:31:23.370Z,66.56
2022-11-25T09:33:25.202Z,67.28
2022-11-25T09:35:30.557Z,66.95
2022-11-25T09:37:32.571Z,67.44
2022-11-25T09:39:35.639Z,66.29
2022-11-25T09:41:59.216Z,65.14
2022-11-25T09:45:06.574Z,66.42
2022-11-25T09:47:26.062Z,65.10
2022-11-25T09:49:40.316Z,65.88
2022-11-25T09:52:05.769Z,66.39
2022-11-25T09:54:18.472Z,66.23
2022-11-25T09:56:33.782Z,64.67
2022-11-25T09:58:41.014Z,66.44
2022-11-25T10:00:46.025Z,65.75
2022-11-25T10:03:04.794Z,65.21
2022-11-25T10:05:18.728Z,65.45
2022-11-25T10:07:53.834Z,65.07
2022-11-25T10:09:56.639Z,65.01
2022-11-25T10:12:19.336Z,66.00
2022-11-25T10:14:35.166Z,64.50
2022-11-25T10:16:52.210Z,64.49
2022-11-25T10:19:01.503Z,64.98
2022-11-25T10:21:04.379Z,65.32
2022-11-25T10:23:06.647Z,65.82
2022-11-25T10:25:17.485Z,65.58
2022-11-25T10:27:26.766Z,65.01
2022-11-25T10:29:30.568Z,65.77
2022-11-25T10:31:36.823Z,65.09
2022-11-25T10:33:51.456Z,65.35
2022-11-25T10:35:56.286Z,65.20
2022-11-25T10:38:01.825Z,64.91
2022-11-25T10:40:04.154Z,64.46
2022-11-25T10:42:15.286Z,64.17
2022-11-25T10:44:29.002Z,64.13
2022-11-25T10:47:13.059Z,63.79
2022-11-25T10:49:22.865Z,64.06
2022-11-25T10:51:43.627Z,63.48
2022-11-25T10:54:12.865Z,63.61
2022-11-25T10:56:19.749Z,62.83
2022-11-25T10:58:35.132Z,63.00
2022-11-25T11:00:38.644Z,64.18
2022-11-25T11:02:41.760Z,64.22
2022-11-25T11:04:55.306Z,63.83
2022-11-25T11:07:08.365Z,63.81
2022-11-25T11:09:34.074Z,63.31
2022-11-25T11:11:47.956Z,62.65
2022-11-25T11:13:51.065Z,64.06
2022-11-25T11:15:54.372Z,64.73
2022-11-25T11:17:58.408Z,64.15
2022-11-25T11:20:14.971Z,64.06
2022-11-25T11:22:18.152Z,63.47
2022-11-25T11:24:35.703Z,64.67
2022-11-25T11:26:37.939Z,63.88
2022-11-25T11:28:41.391Z,64.49
2022-11-25T11:30:56.894Z,64.13
2022-11-25T11:33:03.642Z,64.51
2022-11-25T11:35:21.697Z,63.98
2022-11-25T11:37:42.677Z,65.47
2022-11-25T11:40:12.895Z,64.59
2022-11-25T11:42:30.328Z,64.46
2022-11-25T11:44:35.501Z,63.54
2022-11-25T11:46:53.181Z,64.27
2022-11-25T11:49:10.916Z,64.50
2022-11-25T11:51:13.903Z,64.93
2022-11-25T11:53:28.077Z,64.79
2022-11-25T11:56:00.304Z,64.97
2022-11-25T11:58:40.794Z,64.88
2022-11-25T12:00:50.878Z,64.48
2022-11-25T12:03:19.461Z,64.88
2022-11-25T12:05:26.778Z,65.37
2022-11-25T12:07:37.871Z,65.33
2022-11-25T12:10:10.193Z,64.63
2022-11-25T12:12:17.311Z,64.94
2022-11-25T12:14:45.027Z,63.75
2022-11-25T12:16:55.892Z,65.10
2022-11-25T12:19:33.683Z,65.20
2022-11-25T12:21:48.632Z,64.70
2022-11-25T12:24:04.456Z,65.32
2022-11-25T12:26:13.150Z,64.41
2022-11-25T12:28:21.460Z,64.07
2022-11-25T12:30:24.841Z,64.33
2022-11-25T12:32:46.715Z,65.19
2022-11-25T12:34:58.049Z,65.34
2022-11-25T12:37:14.828Z,65.28
2022-11-25T12:39:57.179Z,64.57
2022-11-25T12:42:12.424Z,64.91
2022-11-25T12:44:18.393Z,63.37
2022-11-25T12:46:20.519Z,66.12
2022-11-25T12:48:24.975Z,65.14
2022-11-25T12:50:48.605Z,65.09
2022-11-25T12:52:50.862Z,65.54
2022-11-25T12:54:53.034Z,67.70
2022-11-25T12:57:22.980Z,66.24
2022-11-25T13:00:17.894Z,66.47
2022-11-25T13:02:35.850Z,67.19
2022-11-25T13:05:39.028Z,68.04
2022-11-25T13:07:54.136Z,67.94
2022-11-25T13:10:22.245Z,67.87
2022-11-25T13:13:00.210Z,68.23
2022-11-25T13:15:11.891Z,67.98
2022-11-25T13:17:16.195Z,68.77
2022-11-25T13:19:20.161Z,68.64
2022-11-25T13:21:25.427Z,68.72
2022-11-25T13:23:30.122Z,68.24
2022-11-25T13:25:34.644Z,68.19
2022-11-25T13:27:42.398Z,69.13
2022-11-25T13:29:44.535Z,68.85
2022-11-25T13:31:59.914Z,68.08
2022-11-25T13:34:20.420Z,68.86
2022-11-25T13:36:47.001Z,69.28
2022-11-25T13:38:50.574Z,68.96
2022-11-25T13:41:01.948Z,68.93
2022-11-25T13:43:21.490Z,68.95
2022-11-25T13:45:32.175Z,69.24
2022-11-25T13:47:38.879Z,68.02
2022-11-25T13:49:51.342Z,68.81
2022-11-25T13:52:13.267Z,69.38
2022-11-25T13:54:18.413Z,68.79
2022-11-25T13:56:32.136Z,68.93
2022-11-25T13:58:36.554Z,69.69
2022-11-25T14:01:27.972Z,69.57
2022-11-25T14:03:46.143Z,69.24
2022-11-25T14:06:00.824Z,68.86
2022-11-25T14:08:26.612Z,69.85
2022-11-25T14:11:08.831Z,69.36
2022-11-25T14:13:40.837Z,69.26
2022-11-25T14:16:07.787Z,68.58
2022-11-25T14:18:43.006Z,69.65
2022-11-25T14:20:43.747Z,69.57
2022-11-25T14:23:07.051Z,69.46
2022-11-25T14:25:30.410Z,69.19
2022-11-25T14:27:35.948Z,69.47
2022-11-25T14:29:45.329Z,70.31
2022-11-25T14:31:59.489Z,69.08
2022-11-25T14:34:09.809Z,69.49
2022-11-25T14:36:17.501Z,70.25
2022-11-25T14:38:25.485Z,70.37
2022-11-25T14:40:37.026Z,69.92
2022-11-25T14:42:44.112Z,69.45
2022-11-25T14:44:56.698Z,69.45
2022-11-25T14:46:58.925Z,69.68
2022-11-25T14:49:03.289Z,69.79
2022-11-25T14:51:10.584Z,69.91
2022-11-25T14:53:14.270Z,69.42
2022-11-25T14:55:32.339Z,69.38
2022-11-25T14:57:37.283Z,69.67
2022-11-25T14:59:44.976Z,69.09
2022-11-25T15:01:55.146Z,69.01
2022-11-25T15:04:12.712Z,68.03
2022-11-25T15:06:15.388Z,69.40
2022-11-25T15:08:22.160Z,68.78
2022-11-25T15:10:33.852Z,69.49
2022-11-25T15:12:38.366Z,69.72
2022-11-25T15:14:49.745Z,69.29
2022-11-25T15:16:52.847Z,69.30
2022-11-25T15:19:00.967Z,69.79
2022-11-25T15:21:03.460Z,68.40
2022-11-25T15:23:05.982Z,70.04
2022-11-25T15:25:14.735Z,69.99
2022-11-25T15:27:27.668Z,69.67
2022-11-25T15:29:31.147Z,68.91
2022-11-25T15:31:34.997Z,69.79
2022-11-25T15:33:37.616Z,70.35
2022-11-25T15:35:39.687Z,70.33
2022-11-25T15:37:42.006Z,70.51
2022-11-25T15:39:44.576Z,69.92
2022-11-25T15:42:03.463Z,70.15
2022-11-25T15:44:06.434Z,70.07
2022-11-25T15:46:08.975Z,69.87
2022-11-25T15:48:29.693Z,70.21
2022-11-25T15:50:34.377Z,69.78
2022-11-25T15:52:40.021Z,70.05
2022-11-25T15:54:45.202Z,70.01
2022-11-25T15:56:50.772Z,69.74
2022-11-25T15:58:55.127Z,69.96
2022-11-25T16:01:21.736Z,69.29
2022-11-25T16:03:23.958Z,70.20
2022-11-25T16:05:37.619Z,69.55
2022-11-25T16:07:54.924Z,69.44
2022-11-25T16:09:56.787Z,69.36
2022-11-25T16:12:06.724Z,68.83
2022-11-25T16:14:27.144Z,68.23
2022-11-25T16:16:30.244Z,69.56
2022-11-25T16:18:40.769Z,69.39
2022-11-25T16:20:51.944Z,69.08
2022-11-25T16:22:53.963Z,69.09
2022-11-25T16:25:02.134Z,68.43
2022-11-25T16:27:27.979Z,69.00
2022-11-25T16:29:32.245Z,69.91
2022-11-25T16:31:34.364Z,70.37
2022-11-25T16:33:36.591Z,70.33
2022-11-25T16:35:38.960Z,69.94
2022-11-25T16:37:48.830Z,70.73
2022-11-25T16:39:51.391Z,70.86
2022-11-25T16:42:02.969Z,70.53
2022-11-25T16:44:08.757Z,70.68
2022-11-25T16:46:15.826Z,70.96
2022-11-25T16:48:20.386Z,70.59
2022-11-25T16:50:23.001Z,70.84
2022-11-25T16:52:24.795Z,70.60
2022-11-25T16:54:27.141Z,71.37
2022-11-25T16:56:29.651Z,71.06
2022-11-25T16:58:31.441Z,70.70
2022-11-25T17:00:33.607Z,71.28
2022-11-25T17:02:35.918Z,71.35
2022-11-25T17:04:37.799Z,73.03
2022-11-25T17:06:43.946Z,72.05
2022-11-25T17:08:46.725Z,71.51
2022-11-25T17:10:49.770Z,71.04
2022-11-25T17:12:51.771Z,71.96
2022-11-25T17:14:53.939Z,71.69
2022-11-25T17:16:56.355Z,71.50
2022-11-25T17:19:00.832Z,71.72
2022-11-25T17:21:04.902Z,71.19
2022-11-25T17:23:12.559Z,71.07
2022-11-25T17:25:14.485Z,71.15
2022-11-25T17:27:26.356Z,71.10
2022-11-25T17:29:37.511Z,71.00
2022-11-25T17:31:39.537Z,70.85
2022-11-25T17:33:47.512Z,71.10
2022-11-25T17:35:50.552Z,70.63
2022-11-25T17:37:53.413Z,69.82
2022-11-25T17:39:55.676Z,71.45
2022-11-25T17:42:02.371Z,70.80
2022-11-25T17:44:04.375Z,72.26
2022-11-25T17:46:11.172Z,71.79
2022-11-25T17:48:19.438Z,72.38
2022-11-25T17:50:25.952Z,72.27
2022-11-25T17:52:30.900Z,71.76
2022-11-25T17:54:34.099Z,71.88
2022-11-25T17:56:37.482Z,73.00
2022-11-25T17:58:40.499Z,72.21
2022-11-25T18:00:44.064Z,72.27
2022-11-25T18:02:46.601Z,72.06
2022-11-25T18:04:49.860Z,72.14
2022-11-25T18:06:55.450Z,72.09
2022-11-25T18:08:57.584Z,72.66
2022-11-25T18:11:02.752Z,72.82
2022-11-25T18:13:05.824Z,72.16
2022-11-25T18:15:14.174Z,72.51
2022-11-25T18:17:19.293Z,72.49
2022-11-25T18:19:24.011Z,72.31
2022-11-25T18:21:26.500Z,72.45
2022-11-25T18:23:29.271Z,72.48
2022-11-25T18:25:36.392Z,73.32
2022-11-25T18:27:38.182Z,72.89
2022-11-25T18:29:39.991Z,72.56
2022-11-25T18:31:47.733Z,72.89
2022-11-25T18:33:51.104Z,73.30
2022-11-25T18:35:55.769Z,73.21
2022-11-25T18:38:00.011Z,72.48
2022-11-25T18:40:03.709Z,72.49
2022-11-25T18:42:08.597Z,73.29
2022-11-25T18:44:26.268Z,72.66
2022-11-25T18:46:33.137Z,72.70
2022-11-25T18:48:35.633Z,73.36
2022-11-25T18:50:37.727Z,73.52
2022-11-25T18:52:39.676Z,73.33
2022-11-25T18:54:42.255Z,74.27
2022-11-25T18:56:51.625Z,74.03
2022-11-25T18:58:53.753Z,73.06
2022-11-25T19:01:03.358Z,73.18
2022-11-25T19:03:13.466Z,73.88
2022-11-25T19:05:38.108Z,73.37
2022-11-25T19:07:40.641Z,74.49
2022-11-25T19:09:42.550Z,74.34
2022-11-25T19:11:49.121Z,74.59
2022-11-25T19:13:53.714Z,73.77
2022-11-25T19:16:05.271Z,74.99
2022-11-25T19:18:16.578Z,74.77
2022-11-25T19:20:20.986Z,74.05
2022-11-25T19:22:35.307Z,74.10
2022-11-25T19:24:38.990Z,74.30
2022-11-25T19:26:43.563Z,75.28
2022-11-25T19:28:51.530Z,73.92
2022-11-25T19:30:59.486Z,75.11
2022-11-25T19:33:02.469Z,74.65
2022-11-25T19:35:11.258Z,74.84
2022-11-25T19:37:26.249Z,75.00
2022-11-25T19:39:35.708Z,75.74
2022-11-25T19:41:38.105Z,75.71
2022-11-25T19:43:39.905Z,76.33
2022-11-25T19:45:41.926Z,76.19
2022-11-25T19:47:48.790Z,74.72
2022-11-25T19:49:56.166Z,76.17
2022-11-25T19:51:57.991Z,75.53
2022-11-25T19:54:00.534Z,77.42
2022-11-25T19:56:05.557Z,76.97
2022-11-25T19:58:20.079Z,76.26
2022-11-25T20:00:38.099Z,76.67
2022-11-25T20:02:46.187Z,77.87
2022-11-25T20:04:57.062Z,76.45
2022-11-25T20:07:00.179Z,76.60
2022-11-25T20:09:07.890Z,76.28
2022-11-25T20:11:16.889Z,76.33
2022-11-25T20:13:23.171Z,75.81
2022-11-25T20:15:26.029Z,76.69
2022-11-25T20:17:30.986Z,75.37
2022-11-25T20:19:33.224Z,76.59
2022-11-25T20:21:39.880Z,75.74
2022-11-25T20:23:45.082Z,76.70
2022-11-25T20:25:50.201Z,76.51
2022-11-25T20:27:55.468Z,76.66
2022-11-25T20:30:00.151Z,76.60
2022-11-25T20:32:22.352Z,77.04
2022-11-25T20:34:24.847Z,76.42
2022-11-25T20:36:32.434Z,75.94
2022-11-25T20:38:37.678Z,78.12
2022-11-25T20:40:45.344Z,77.68
2022-11-25T20:42:50.504Z,76.67
2022-11-25T20:45:03.435Z,76.53
2022-11-25T20:47:15.160Z,77.68
2022-11-25T20:49:23.423Z,77.09
2022-11-25T20:51:27.934Z,76.57
2022-11-25T20:53:33.164Z,76.52
2022-11-25T20:55:36.739Z,76.80
2022-11-25T20:57:45.147Z,76.27
2022-11-25T20:59:47.533Z,76.49
2022-11-25T21:01:50.580Z,76.07
2022-11-25T21:03:56.557Z,76.89
2022-11-25T21:06:05.444Z,76.36
2022-11-25T21:08:17.705Z,75.67
2022-11-25T21:10:29.092Z,75.50
2022-11-25T21:12:31.252Z,75.99
2022-11-25T21:14:35.095Z,76.42
2022-11-25T21:16:37.451Z,76.30
2022-11-25T21:18:41.323Z,76.24
2022-11-25T21:20:43.361Z,75.78
2022-11-25T21:22:50.004Z,76.47
2022-11-25T21:24:52.334Z,76.09
2022-11-25T21:27:03.459Z,75.33
2022-11-25T21:29:15.603Z,75.18
2022-11-25T21:31:23.777Z,75.53
2022-11-25T21:33:26.387Z,75.21
2022-11-25T21:35:33.299Z,75.13
2022-11-25T21:37:36.699Z,74.71
2022-11-25T21:39:38.547Z,75.27
2022-11-25T21:41:40.779Z,74.55
2022-11-25T21:43:45.650Z,74.78
2022-11-25T21:45:48.488Z,74.82
2022-11-25T21:47:57.775Z,74.97
2022-11-25T21:50:12.247Z,75.06
2022-11-25T21:52:14.916Z,74.72
2022-11-25T21:54:16.796Z,74.70
2022-11-25T21:56:30.980Z,74.64
2022-11-25T21:58:32.908Z,74.87
2022-11-25T22:00:34.774Z,74.51
2022-11-25T22:02:37.078Z,74.79
2022-11-25T22:04:40.656Z,74.67
2022-11-25T22:06:45.263Z,74.61
2022-11-25T22:08:47.482Z,74.46
2022-11-25T22:10:52.357Z,73.65
2022-11-25T22:12:54.285Z,74.58
2022-11-25T22:14:58.658Z,74.75
2022-11-25T22:17:01.686Z,74.19
2022-11-25T22:19:04.531Z,74.61
2022-11-25T22:21:06.718Z,74.89
2022-11-25T22:23:16.299Z,74.46
2022-11-25T22:25:18.642Z,75.05
2022-11-25T22:27:26.399Z,74.92
2022-11-25T22:29:34.599Z,74.71
2022-11-25T22:31:36.490Z,74.37
2022-11-25T22:33:38.907Z,74.87
2022-11-25T22:35:41.599Z,75.15
2022-11-25T22:37:44.326Z,74.80
2022-11-25T22:39:46.498Z,74.03
2022-11-25T22:41:55.180Z,75.00
2022-11-25T22:43:57.492Z,74.92
2022-11-25T22:45:59.745Z,75.10
2022-11-25T22:48:06.257Z,75.03
2022-11-25T22:50:21.038Z,74.94
2022-11-25T22:52:29.694Z,75.00
2022-11-25T22:54:33.046Z,74.37
2022-11-25T22:56:34.839Z,73.63
2022-11-25T22:58:37.123Z,74.03
2022-11-25T23:00:46.200Z,74.32
2022-11-25T23:02:49.485Z,74.83
2022-11-25T23:04:54.175Z,74.97
2022-11-25T23:06:56.123Z,74.54
2022-11-25T23:09:00.414Z,74.28
2022-11-25T23:11:02.694Z,74.81
2022-11-25T23:13:04.701Z,74.60
2022-11-25T23:15:06.870Z,74.27
2022-11-25T23:17:23.938Z,74.46
2022-11-25T23:19:25.882Z,74.19
2022-11-25T23:21:29.223Z,73.85
2022-11-25T23:23:31.098Z,73.51
2022-11-25T23:25:32.872Z,74.58
2022-11-25T23:27:35.046Z,73.91
2022-11-25T23:29:36.899Z,73.07
2022-11-25T23:31:40.028Z,73.93
2022-11-25T23:33:47.026Z,74.11
2022-11-25T23:35:49.030Z,74.12
2022-11-25T23:37:54.817Z,74.49
2022-11-25T23:39:57.023Z,74.60
2022-11-25T23:41:59.002Z,74.44
2022-11-25T23:44:14.833Z,74.68
2022-11-25T23:46:20.943Z,74.65
2022-11-25T23:48:27.746Z,73.84
2022-11-25T23:50:32.432Z,74.90
2022-11-25T23:52:34.563Z,74.43
2022-11-25T23:54:42.581Z,74.19
2022-11-25T23:56:44.476Z,73.98
2022-11-25T23:58:46.612Z,74.17
